Millway, Pennsylvania
Current Conditions -  °F | °C
As of 7:53 PM on Monday 24 Nov 2014 (Local Time) from KLNS Reporting Station
Clear Clear  
Wind Chill: 62°   Ceiling: Unl
Heat Index: 62°   Visibility: 10mi
Dew Point: 51°   Wind: 9mph
Humidity: 67%   Direction: 200°SSW
Pressure: 29.66"   Gusts: NA
Location:  40.1769°N, 76.295°W
Report Text: KLNS 250053Z 20008KT 10SM CLR 17/11 A2966 RMK AO2 SLP043 T01670106
Loading
Personal Weather Stations






























Interactive Weather Map New forecast layout! Learn more

10-Day Weather Forecast

Advertisements
Track Severe Weather on mobile